createdAt,value
2022-10-24T00:01:30.360Z,6.20
2022-10-24T00:03:58.111Z,5.80
2022-10-24T00:06:26.049Z,5.70
2022-10-24T00:08:55.219Z,5.70
2022-10-24T00:11:25.365Z,6.00
2022-10-24T00:13:53.947Z,5.60
2022-10-24T00:16:21.916Z,5.80
2022-10-24T00:18:49.788Z,5.80
2022-10-24T00:21:17.365Z,5.60
2022-10-24T00:23:45.206Z,6.30
2022-10-24T00:26:14.433Z,5.80
2022-10-24T00:28:42.274Z,6.40
2022-10-24T00:31:13.223Z,6.20
2022-10-24T00:33:41.177Z,6.50
2022-10-24T00:36:12.523Z,6.20
2022-10-24T00:38:40.379Z,5.70
2022-10-24T00:41:13.280Z,6.10
2022-10-24T00:43:41.244Z,6.20
2022-10-24T00:46:09.068Z,6.20
2022-10-24T00:48:39.432Z,6.30
2022-10-24T00:51:27.172Z,6.80
2022-10-24T00:56:32.630Z,6.50
2022-10-24T00:59:01.827Z,6.70
2022-10-24T01:01:29.646Z,6.50
2022-10-24T01:03:57.373Z,6.30
2022-10-24T01:06:44.843Z,6.30
2022-10-24T01:09:21.856Z,6.30
2022-10-24T01:11:55.866Z,5.90
2022-10-24T01:14:26.399Z,5.90
2022-10-24T01:17:14.330Z,6.60
2022-10-24T01:19:57.849Z,7.00
2022-10-24T01:22:48.769Z,7.30
2022-10-24T01:25:22.372Z,7.00
2022-10-24T01:27:58.330Z,6.40
2022-10-24T01:30:27.676Z,7.00
2022-10-24T01:33:04.194Z,6.70
2022-10-24T01:35:42.955Z,7.20
2022-10-24T01:38:13.804Z,6.80
2022-10-24T01:40:41.558Z,6.90
2022-10-24T01:43:13.966Z,6.70
2022-10-24T01:45:43.696Z,6.80
2022-10-24T01:48:14.538Z,7.10
2022-10-24T01:50:43.320Z,7.00
2022-10-24T01:53:12.518Z,6.70
2022-10-24T01:55:40.951Z,7.20
2022-10-24T01:58:08.903Z,7.20
2022-10-24T02:00:36.902Z,7.10
2022-10-24T02:03:14.325Z,6.90
2022-10-24T02:08:11.899Z,6.60
2022-10-24T02:10:42.994Z,6.90
2022-10-24T02:13:17.223Z,6.70
2022-10-24T02:15:47.211Z,5.60
2022-10-24T02:18:15.549Z,6.90
2022-10-24T02:20:47.101Z,6.70
2022-10-24T02:23:17.886Z,6.10
2022-10-24T02:25:48.160Z,6.20
2022-10-24T02:28:17.665Z,6.80
2022-10-24T02:31:03.755Z,6.40
2022-10-24T02:33:32.634Z,6.80
2022-10-24T02:36:01.856Z,5.90
2022-10-24T02:38:34.523Z,6.10
2022-10-24T02:41:04.232Z,5.50
2022-10-24T02:43:33.122Z,6.40
2022-10-24T02:46:01.194Z,6.50
2022-10-24T02:48:31.004Z,6.20
2022-10-24T02:50:58.829Z,6.90
2022-10-24T02:53:28.067Z,6.40
2022-10-24T02:55:56.229Z,6.50
2022-10-24T02:58:25.850Z,6.50
2022-10-24T03:00:53.813Z,6.30
2022-10-24T03:03:22.513Z,6.60
2022-10-24T03:05:50.285Z,6.40
2022-10-24T03:08:18.448Z,6.50
2022-10-24T03:10:46.083Z,7.00
2022-10-24T03:13:13.763Z,6.10
2022-10-24T03:15:41.470Z,6.30
2022-10-24T03:18:09.296Z,6.60
2022-10-24T03:20:37.271Z,7.00
2022-10-24T03:23:05.074Z,6.60
2022-10-24T03:25:33.199Z,7.00
2022-10-24T03:28:00.856Z,7.40
2022-10-24T03:30:28.515Z,7.20
2022-10-24T03:32:56.216Z,7.00
2022-10-24T03:35:24.249Z,6.20
2022-10-24T03:37:51.911Z,8.00
2022-10-24T03:40:19.540Z,9.20
2022-10-24T03:42:47.735Z,8.40
2022-10-24T03:45:16.089Z,7.60
2022-10-24T03:47:44.396Z,7.20
2022-10-24T03:50:12.369Z,8.00
2022-10-24T03:52:40.239Z,8.10
2022-10-24T03:55:08.201Z,8.20
2022-10-24T03:57:36.152Z,7.40
2022-10-24T04:00:04.845Z,7.60
2022-10-24T04:02:32.627Z,7.00
2022-10-24T04:05:00.383Z,7.50
2022-10-24T04:07:28.272Z,7.30
2022-10-24T04:09:57.459Z,7.40
2022-10-24T04:12:25.273Z,7.20
2022-10-24T04:14:53.314Z,8.50
2022-10-24T04:17:21.042Z,7.50
2022-10-24T04:19:48.826Z,6.60
2022-10-24T04:22:16.930Z,7.40
2022-10-24T04:24:45.564Z,7.20
2022-10-24T04:27:14.353Z,7.20
2022-10-24T04:29:42.717Z,7.20
2022-10-24T04:32:10.593Z,7.00
2022-10-24T04:34:38.564Z,9.80
2022-10-24T04:37:06.223Z,9.30
2022-10-24T04:39:34.298Z,9.00
2022-10-24T04:42:02.527Z,7.70
2022-10-24T04:44:30.693Z,6.90
2022-10-24T04:46:58.254Z,8.20
2022-10-24T04:49:25.862Z,7.80
2022-10-24T04:51:53.571Z,7.90
2022-10-24T04:54:21.224Z,7.80
2022-10-24T04:56:48.946Z,8.10
2022-10-24T04:59:16.694Z,8.10
2022-10-24T05:01:44.340Z,7.40
2022-10-24T05:04:15.014Z,7.10
2022-10-24T05:06:44.984Z,6.70
2022-10-24T05:09:13.752Z,7.20
2022-10-24T05:11:41.407Z,6.20
2022-10-24T05:14:09.939Z,6.40
2022-10-24T05:16:37.917Z,6.60
2022-10-24T05:19:05.686Z,6.50
2022-10-24T05:21:34.088Z,7.80
2022-10-24T05:24:02.744Z,8.90
2022-10-24T05:26:31.204Z,8.50
2022-10-24T05:28:58.903Z,6.90
2022-10-24T05:31:27.234Z,7.10
2022-10-24T05:33:55.335Z,6.30
2022-10-24T05:36:23.100Z,6.80
2022-10-24T05:38:50.759Z,6.60
2022-10-24T05:41:18.728Z,6.80
2022-10-24T05:43:46.745Z,6.30
2022-10-24T05:46:14.479Z,6.90
2022-10-24T05:48:42.155Z,7.60
2022-10-24T05:51:09.792Z,6.60
2022-10-24T05:53:37.454Z,7.70
2022-10-24T05:56:06.541Z,9.30
2022-10-24T05:58:34.602Z,9.60
2022-10-24T06:01:02.741Z,9.40
2022-10-24T06:03:30.754Z,9.00
2022-10-24T06:05:58.724Z,9.70
2022-10-24T06:08:26.382Z,8.60
2022-10-24T06:10:54.007Z,8.40
2022-10-24T06:13:21.807Z,7.80
2022-10-24T06:15:49.434Z,7.20
2022-10-24T06:18:17.285Z,7.50
2022-10-24T06:20:44.955Z,7.90
2022-10-24T06:23:12.965Z,7.20
2022-10-24T06:25:41.961Z,6.60
2022-10-24T06:28:09.928Z,7.00
2022-10-24T06:30:39.487Z,6.50
2022-10-24T06:33:07.294Z,6.40
2022-10-24T06:35:36.138Z,6.60
2022-10-24T06:38:03.981Z,6.70
2022-10-24T06:40:32.020Z,6.70
2022-10-24T06:42:59.988Z,8.00
2022-10-24T06:45:27.763Z,7.60
2022-10-24T06:47:56.290Z,7.50
2022-10-24T06:50:24.630Z,8.40
2022-10-24T06:52:52.465Z,7.80
2022-10-24T06:55:20.141Z,7.80
2022-10-24T06:57:48.075Z,8.50
2022-10-24T07:00:16.420Z,7.80
2022-10-24T07:02:44.631Z,7.50
2022-10-24T07:05:14.675Z,7.30
2022-10-24T07:07:44.046Z,7.50
2022-10-24T07:10:13.584Z,7.80
2022-10-24T07:12:43.640Z,7.30
2022-10-24T07:15:12.083Z,7.30
2022-10-24T07:17:40.760Z,7.10
2022-10-24T07:20:09.602Z,6.60
2022-10-24T07:22:37.627Z,6.40
2022-10-24T07:25:06.433Z,6.70
2022-10-24T07:27:34.503Z,6.90
2022-10-24T07:30:05.525Z,6.80
2022-10-24T07:32:34.320Z,7.10
2022-10-24T07:35:05.417Z,7.60
2022-10-24T07:37:33.727Z,7.70
2022-10-24T07:40:01.388Z,7.70
2022-10-24T07:42:29.359Z,7.30
2022-10-24T07:44:57.068Z,7.30
2022-10-24T07:47:24.983Z,6.50
2022-10-24T07:49:52.759Z,6.80
2022-10-24T07:52:20.411Z,6.80
2022-10-24T07:54:48.069Z,6.30
2022-10-24T07:57:15.858Z,7.20
2022-10-24T07:59:43.466Z,7.20
2022-10-24T08:02:11.866Z,6.70
2022-10-24T08:04:40.251Z,6.50
2022-10-24T08:07:13.912Z,6.50
2022-10-24T08:09:43.775Z,5.90
2022-10-24T08:12:11.780Z,6.30
2022-10-24T08:14:40.118Z,6.20
2022-10-24T08:17:08.412Z,6.00
2022-10-24T08:19:36.936Z,6.00
2022-10-24T08:22:04.577Z,6.10
2022-10-24T08:24:32.190Z,6.00
2022-10-24T08:26:59.998Z,5.80
2022-10-24T08:29:28.542Z,6.10
2022-10-24T08:31:56.508Z,6.00
2022-10-24T08:34:24.474Z,5.60
2022-10-24T08:36:52.218Z,6.00
2022-10-24T08:39:20.118Z,5.60
2022-10-24T08:41:59.282Z,5.80
2022-10-24T08:44:30.070Z,5.80
2022-10-24T08:47:07.483Z,5.30
2022-10-24T08:49:35.736Z,5.20
2022-10-24T08:52:06.572Z,5.30
2022-10-24T08:54:37.019Z,5.30
2022-10-24T08:57:06.304Z,5.10
2022-10-24T08:59:36.078Z,5.50
2022-10-24T09:02:07.815Z,5.60
2022-10-24T09:04:40.766Z,4.80
2022-10-24T09:07:15.665Z,5.10
2022-10-24T09:09:46.786Z,5.00
2022-10-24T09:12:16.049Z,5.20
2022-10-24T09:14:45.328Z,4.90
2022-10-24T09:17:24.186Z,4.90
2022-10-24T09:19:56.405Z,4.90
2022-10-24T09:22:27.153Z,4.90
2022-10-24T09:25:01.044Z,4.70
2022-10-24T09:27:32.382Z,5.00
2022-10-24T09:30:00.758Z,4.90
2022-10-24T09:32:31.006Z,4.60
2022-10-24T09:35:12.588Z,4.90
2022-10-24T09:37:44.368Z,5.00
2022-10-24T09:40:26.024Z,4.50
2022-10-24T09:43:12.662Z,4.60
2022-10-24T09:45:41.986Z,5.10
2022-10-24T09:48:29.221Z,4.70
2022-10-24T09:50:59.585Z,4.30
2022-10-24T09:53:29.090Z,4.40
2022-10-24T09:55:59.097Z,4.00
2022-10-24T09:58:33.241Z,4.10
2022-10-24T10:01:05.387Z,4.30
2022-10-24T10:03:34.181Z,4.10
2022-10-24T10:06:14.100Z,3.70
2022-10-24T10:08:43.144Z,3.80
2022-10-24T10:11:12.354Z,3.40
2022-10-24T10:13:49.513Z,3.80
2022-10-24T10:16:31.494Z,3.90
2022-10-24T10:19:16.773Z,4.00
2022-10-24T10:21:58.059Z,4.00
2022-10-24T10:24:38.535Z,3.80
2022-10-24T10:27:24.879Z,4.00
2022-10-24T10:30:09.622Z,4.20
2022-10-24T10:32:55.882Z,3.80
2022-10-24T10:35:29.893Z,3.60
2022-10-24T10:38:03.480Z,3.50
2022-10-24T10:40:37.853Z,3.30
2022-10-24T10:43:11.810Z,3.60
2022-10-24T10:45:59.762Z,3.60
2022-10-24T10:48:59.867Z,3.30
2022-10-24T10:51:36.034Z,3.50
2022-10-24T10:54:12.901Z,3.80
2022-10-24T10:57:04.611Z,3.70
2022-10-24T10:59:51.235Z,3.90
2022-10-24T11:02:37.250Z,3.50
2022-10-24T11:05:04.862Z,3.20
2022-10-24T11:07:41.637Z,3.30
2022-10-24T11:10:11.065Z,3.40
2022-10-24T11:12:40.158Z,3.30
2022-10-24T11:15:15.077Z,3.60
2022-10-24T11:17:59.446Z,3.60
2022-10-24T11:20:29.627Z,3.80
2022-10-24T11:23:05.475Z,3.50
2022-10-24T11:25:33.281Z,3.40
2022-10-24T11:28:13.031Z,3.60
2022-10-24T11:30:52.508Z,3.70
2022-10-24T11:33:24.461Z,3.20
2022-10-24T11:36:08.369Z,3.40
2022-10-24T11:38:45.110Z,3.50
2022-10-24T11:41:33.431Z,3.40
2022-10-24T11:44:03.664Z,3.30
2022-10-24T11:46:39.256Z,3.40
2022-10-24T11:49:17.132Z,3.30
2022-10-24T11:51:54.442Z,3.60
2022-10-24T11:54:26.200Z,3.50
2022-10-24T11:56:56.526Z,3.30
2022-10-24T11:59:25.209Z,3.40
2022-10-24T12:01:57.158Z,3.20
2022-10-24T12:04:31.896Z,3.30
2022-10-24T12:06:59.450Z,3.10
2022-10-24T12:09:47.450Z,3.30
2022-10-24T12:12:35.855Z,3.30
2022-10-24T12:15:12.012Z,3.60
2022-10-24T12:17:52.875Z,3.00
2022-10-24T12:20:22.176Z,3.30
2022-10-24T12:22:50.692Z,3.30
2022-10-24T12:25:36.439Z,3.10
2022-10-24T12:28:12.240Z,3.30
2022-10-24T12:30:40.716Z,3.00
2022-10-24T12:33:11.170Z,2.90
2022-10-24T12:35:44.694Z,3.10
2022-10-24T12:38:27.823Z,2.80
2022-10-24T12:40:55.881Z,3.00
2022-10-24T12:43:29.395Z,3.30
2022-10-24T12:46:00.407Z,2.80
2022-10-24T12:48:29.731Z,2.90
2022-10-24T12:51:02.619Z,3.10
2022-10-24T12:53:38.775Z,3.10
2022-10-24T12:56:12.308Z,3.00
2022-10-24T12:58:43.014Z,2.80
2022-10-24T13:01:33.246Z,2.90
2022-10-24T13:04:09.634Z,2.60
2022-10-24T13:07:03.845Z,3.10
2022-10-24T13:09:41.137Z,2.80
2022-10-24T13:12:16.987Z,3.00
2022-10-24T13:15:01.145Z,3.00
2022-10-24T13:17:36.265Z,3.00
2022-10-24T13:20:06.162Z,2.70
2022-10-24T13:22:36.404Z,2.80
2022-10-24T13:25:23.017Z,2.90
2022-10-24T13:28:11.460Z,2.60
2022-10-24T13:30:39.226Z,2.70
2022-10-24T13:33:25.727Z,2.70
2022-10-24T13:35:54.459Z,3.20
2022-10-24T13:38:23.210Z,5.30
2022-10-24T13:40:51.373Z,4.20
2022-10-24T13:43:19.856Z,3.10
2022-10-24T13:45:55.297Z,3.20
2022-10-24T13:48:28.823Z,3.20
2022-10-24T13:51:08.941Z,2.80
2022-10-24T13:53:50.321Z,3.00
2022-10-24T13:56:18.304Z,3.30
2022-10-24T13:58:46.749Z,2.90
2022-10-24T14:01:21.282Z,3.30
2022-10-24T14:03:49.849Z,2.90
2022-10-24T14:06:23.359Z,3.60
2022-10-24T14:09:02.703Z,3.20
2022-10-24T14:11:39.596Z,2.90
2022-10-24T14:14:13.824Z,2.90
2022-10-24T14:16:41.580Z,3.10
2022-10-24T14:19:14.043Z,3.20
2022-10-24T14:21:48.983Z,3.20
2022-10-24T14:24:18.459Z,3.10
2022-10-24T14:26:48.179Z,3.30
2022-10-24T14:29:27.917Z,3.50
2022-10-24T14:32:00.927Z,4.70
2022-10-24T14:34:33.915Z,4.90
2022-10-24T14:37:05.831Z,4.60
2022-10-24T14:39:35.188Z,4.80
2022-10-24T14:42:03.451Z,4.50
2022-10-24T14:44:37.399Z,4.80
2022-10-24T14:47:31.869Z,3.80
2022-10-24T14:50:01.291Z,3.80
2022-10-24T14:52:40.377Z,3.70
2022-10-24T14:55:14.911Z,3.40
2022-10-24T14:57:47.468Z,3.60
2022-10-24T15:00:21.414Z,3.30
2022-10-24T15:02:50.481Z,3.70
2022-10-24T15:05:25.456Z,3.10
2022-10-24T15:08:22.806Z,3.00
2022-10-24T15:11:02.862Z,3.70
2022-10-24T15:13:32.559Z,3.50
2022-10-24T15:16:01.215Z,3.50
2022-10-24T15:18:30.653Z,3.50
2022-10-24T15:21:02.252Z,3.70
2022-10-24T15:23:38.431Z,3.80
2022-10-24T15:26:11.115Z,3.60
2022-10-24T15:28:39.315Z,3.90
2022-10-24T15:31:09.814Z,3.50
2022-10-24T15:36:06.801Z,3.80
2022-10-24T15:38:40.502Z,3.30
2022-10-24T15:41:12.440Z,3.30
2022-10-24T15:43:43.742Z,3.60
2022-10-24T15:46:14.871Z,3.10
2022-10-24T15:48:43.878Z,3.10
2022-10-24T15:51:15.484Z,2.80
2022-10-24T15:53:47.795Z,3.00
2022-10-24T15:56:17.261Z,3.10
2022-10-24T15:58:45.573Z,3.00
2022-10-24T16:01:30.059Z,3.10
2022-10-24T16:04:00.731Z,3.00
2022-10-24T16:06:29.610Z,3.10
2022-10-24T16:08:59.788Z,3.00
2022-10-24T16:11:29.441Z,3.10
2022-10-24T16:13:59.044Z,3.50
2022-10-24T16:16:26.906Z,3.00
2022-10-24T16:18:54.669Z,3.40
2022-10-24T16:21:22.534Z,3.00
2022-10-24T16:26:19.341Z,3.10
2022-10-24T16:28:47.257Z,2.80
2022-10-24T16:31:18.812Z,2.90
2022-10-24T16:33:47.003Z,3.30
2022-10-24T16:36:18.452Z,3.70
2022-10-24T16:38:48.865Z,3.60
2022-10-24T16:41:19.950Z,3.30
2022-10-24T16:43:50.051Z,3.20
2022-10-24T16:46:20.549Z,6.10
2022-10-24T16:48:50.066Z,3.90
2022-10-24T16:51:19.167Z,8.60
2022-10-24T16:53:47.220Z,9.70
2022-10-24T16:56:16.245Z,7.50
2022-10-24T16:58:44.786Z,7.00
2022-10-24T17:01:14.383Z,7.10
2022-10-24T17:03:43.550Z,22.50
2022-10-24T17:06:11.982Z,27.20
2022-10-24T17:08:40.456Z,24.60
2022-10-24T17:11:32.099Z,13.10
2022-10-24T17:13:58.182Z,9.10
2022-10-24T17:16:26.276Z,9.80
2022-10-24T17:19:05.503Z,9.10
2022-10-24T17:21:43.613Z,6.80
2022-10-24T17:24:12.619Z,6.80
2022-10-24T17:26:41.293Z,6.30
2022-10-24T17:29:15.624Z,6.40
2022-10-24T17:31:45.043Z,8.10
2022-10-24T17:34:14.732Z,7.80
2022-10-24T17:36:46.373Z,7.00
2022-10-24T17:39:18.590Z,5.10
2022-10-24T17:41:47.959Z,3.70
2022-10-24T17:44:18.679Z,5.60
2022-10-24T17:46:48.082Z,5.20
2022-10-24T17:49:20.926Z,3.80
2022-10-24T17:51:50.375Z,8.10
2022-10-24T17:54:19.167Z,6.90
2022-10-24T17:56:47.021Z,7.10
2022-10-24T17:59:17.121Z,6.50
2022-10-24T18:01:45.820Z,6.40
2022-10-24T18:04:14.303Z,7.40
2022-10-24T18:06:43.356Z,6.10
2022-10-24T18:09:12.090Z,6.30
2022-10-24T18:11:43.854Z,6.90
2022-10-24T18:14:11.977Z,9.00
2022-10-24T18:16:40.499Z,7.60
2022-10-24T18:19:09.224Z,10.70
2022-10-24T18:21:37.358Z,7.50
2022-10-24T18:24:07.885Z,5.90
2022-10-24T18:26:36.483Z,5.90
2022-10-24T18:29:10.112Z,6.10
2022-10-24T18:31:40.492Z,6.70
2022-10-24T18:34:08.964Z,8.40
2022-10-24T18:36:37.979Z,9.80
2022-10-24T18:39:06.109Z,9.90
2022-10-24T18:41:36.271Z,10.10
2022-10-24T18:44:16.623Z,10.10
2022-10-24T18:46:46.951Z,12.60
2022-10-24T18:49:16.959Z,13.50
2022-10-24T18:52:04.277Z,10.60
2022-10-24T18:57:01.345Z,6.60
2022-10-24T18:59:32.907Z,6.40
2022-10-24T19:02:18.856Z,5.40
2022-10-24T19:04:51.056Z,5.80
2022-10-24T19:07:20.794Z,5.50
2022-10-24T19:09:51.923Z,6.50
2022-10-24T19:12:20.078Z,8.60
2022-10-24T19:14:48.532Z,7.90
2022-10-24T19:17:17.449Z,7.50
2022-10-24T19:19:45.159Z,13.90
2022-10-24T19:22:13.052Z,8.10
2022-10-24T19:24:41.044Z,8.50
2022-10-24T19:27:09.422Z,7.60
2022-10-24T19:29:37.325Z,7.10
2022-10-24T19:32:05.257Z,7.60
2022-10-24T19:34:35.366Z,7.60
2022-10-24T19:37:04.408Z,7.00
2022-10-24T19:39:33.944Z,7.10
2022-10-24T19:42:02.150Z,7.30
2022-10-24T19:44:30.434Z,8.80
2022-10-24T19:46:58.810Z,7.00
2022-10-24T19:49:27.176Z,7.40
2022-10-24T19:51:56.994Z,6.90
2022-10-24T19:54:25.268Z,7.60
2022-10-24T19:56:55.412Z,7.30
2022-10-24T19:59:26.430Z,8.20
2022-10-24T20:01:55.255Z,7.40
2022-10-24T20:04:23.538Z,7.30
2022-10-24T20:06:51.602Z,7.00
2022-10-24T20:09:19.411Z,7.20
2022-10-24T20:11:48.140Z,7.40
2022-10-24T20:14:17.036Z,7.60
2022-10-24T20:16:44.977Z,7.50
2022-10-24T20:19:14.688Z,7.30
2022-10-24T20:21:43.776Z,7.30
2022-10-24T20:24:12.046Z,7.40
2022-10-24T20:26:40.290Z,7.20
2022-10-24T20:29:08.148Z,7.10
2022-10-24T20:31:38.322Z,7.30
2022-10-24T20:34:09.951Z,7.50
2022-10-24T20:36:39.127Z,7.10
2022-10-24T20:39:08.111Z,7.40
2022-10-24T20:41:36.604Z,6.80
2022-10-24T20:44:07.267Z,6.80
2022-10-24T20:46:36.162Z,6.80
2022-10-24T20:49:04.382Z,6.80
2022-10-24T20:51:32.812Z,6.90
2022-10-24T20:54:00.576Z,6.70
2022-10-24T20:56:28.852Z,6.70
2022-10-24T20:58:56.718Z,7.80
2022-10-24T21:01:27.046Z,7.30
2022-10-24T21:03:55.827Z,8.00
2022-10-24T21:06:24.821Z,8.00
2022-10-24T21:08:54.776Z,8.80
2022-10-24T21:11:29.023Z,8.30
2022-10-24T21:14:01.128Z,8.60
2022-10-24T21:16:29.913Z,8.00
2022-10-24T21:19:02.073Z,9.00
2022-10-24T21:21:31.654Z,8.30
2022-10-24T21:24:04.493Z,8.40
2022-10-24T21:26:39.461Z,8.20
2022-10-24T21:29:27.993Z,8.90
2022-10-24T21:31:57.454Z,8.50
2022-10-24T21:34:27.721Z,8.60
2022-10-24T21:36:58.608Z,8.50
2022-10-24T21:39:26.987Z,8.00
2022-10-24T21:41:54.951Z,8.50
2022-10-24T21:44:25.892Z,8.60
2022-10-24T21:46:54.783Z,8.20
2022-10-24T21:49:23.065Z,8.40
2022-10-24T21:51:51.441Z,8.30
2022-10-24T21:54:21.046Z,8.10
2022-10-24T21:56:50.255Z,7.80
2022-10-24T21:59:19.865Z,8.00
2022-10-24T22:01:48.991Z,8.70
2022-10-24T22:04:18.318Z,7.80
2022-10-24T22:06:47.028Z,8.10
2022-10-24T22:09:17.103Z,8.20
2022-10-24T22:11:45.322Z,8.00
2022-10-24T22:14:14.622Z,7.90
2022-10-24T22:16:43.403Z,7.60
2022-10-24T22:19:12.002Z,8.00
2022-10-24T22:21:44.219Z,7.70
2022-10-24T22:24:22.699Z,7.90
2022-10-24T22:26:51.061Z,7.80
2022-10-24T22:29:20.759Z,8.30
2022-10-24T22:31:49.035Z,8.30
2022-10-24T22:34:18.526Z,7.80
2022-10-24T22:37:11.337Z,8.00
2022-10-24T22:39:39.387Z,7.90
2022-10-24T22:42:09.525Z,8.30
2022-10-24T22:44:38.165Z,8.20
2022-10-24T22:47:08.829Z,6.80
2022-10-24T22:49:55.297Z,8.10
2022-10-24T22:52:23.476Z,8.30
2022-10-24T22:54:51.648Z,8.00
2022-10-24T22:57:19.382Z,8.30
2022-10-24T22:59:47.482Z,8.70
2022-10-24T23:02:33.168Z,8.70
2022-10-24T23:05:04.409Z,8.30
2022-10-24T23:07:34.952Z,8.40
2022-10-24T23:10:02.719Z,8.50
2022-10-24T23:12:31.080Z,8.70
2022-10-24T23:14:59.046Z,8.60
2022-10-24T23:17:28.140Z,8.50
2022-10-24T23:19:56.786Z,9.00
2022-10-24T23:22:31.996Z,8.40
2022-10-24T23:25:00.810Z,8.20
2022-10-24T23:27:33.927Z,8.50
2022-10-24T23:30:02.964Z,7.70
2022-10-24T23:32:32.487Z,8.00
2022-10-24T23:35:00.720Z,7.70
2022-10-24T23:37:28.443Z,7.60
2022-10-24T23:39:56.730Z,8.20
2022-10-24T23:42:25.136Z,8.30
2022-10-24T23:44:53.728Z,8.50
2022-10-24T23:47:24.755Z,8.90
2022-10-24T23:49:59.516Z,8.30
2022-10-24T23:52:29.137Z,8.90
2022-10-24T23:54:57.412Z,9.10
2022-10-24T23:57:25.537Z,8.00
2022-10-24T23:59:53.608Z,8.00
